Terminal Aerodrome Forecast
Issued by NWS

Home | Current Version | Previous Version | Text Only | Print | Product List | Glossary On
Versions: 1 2 3 4 5 6 7 8 9 10 11 12 13 14 15 16
000
FTUS45 KTFX 202000 AAA
TAFLWT
TAF AMD
KLWT 202059Z 2021/2118 VRB05KT P6SM VCTS SCT070CB BKN110
      TEMPO 2021/2101 VRB15G30KT -TSRA BKN040CB
     FM210100 33006KT P6SM -RA SCT040 BKN060
      TEMPO 2102/2105 5SM -RA BR SCT020 OVC040
     FM211000 VRB04KT P6SM SCT070 BKN150=

USA.gov is the U.S. government's official web portal to all federal, state and local government web resources and services.